Terminal Aerodrome Forecast
Issued by NWS

Home | Current Version | Previous Version | Graphics & Text | Print | Product List | Glossary On
Versions: 1 2 3 4 5 6 7 8 9 10 11 12 13 14 15 16 17
000
FTUS43 KIWX 222300
TAFSBN
TAF
KSBN 222326Z 2300/2324 24010KT P6SM SCT040 BKN100
     FM230300 24007KT P6SM VCTS BKN060CB
      TEMPO 2303/2307 6SM -SHRA BKN035
     FM230800 34012KT P6SM OVC035
     FM231500 35015G20KT P6SM SCT035=

USA.gov is the U.S. government's official web portal to all federal, state and local government web resources and services.